Other Surface Observations
Issued by NWS Great Falls, MT

Home | Current Version | Previous Version | Text Only | Print | Product List | Glossary On
Versions: 1 2 3 4 5 6 7 8 9 10 11 12 13 14 15 16 17 18 19 20 21 22 23 24 25 26 27 28 29 30 31 32 33 34 35 36 37 38 39 40 41 42 43 44 45 46 47 48 49 50
000
SXUS55 KTFX 191734
OSOTFX
AREA AWOS OBSERVATIONS
NATIONAL WEATHER SERVICE GREAT FALLS MT
1129 AM MDT THU OCT 19 2017

METAR KPWD 191730Z AUTO 14009KT 10SM 16/01 A2968 RMK PLENTYWOOD
METAR KPO1 191730Z AUTO 22007KT 10SM 21/01 A2969 RMK POPLAR
METAR K1S3 191730Z AUTO 00000KT 18/03 A2975 RMK FORSYTH
METAR KS71 191730Z AUTO 22013G20KT 10SM 24/M05 A2961 RMK CHINOOK
METAR K38S 191730Z AUTO 17008G14KT 10SM 19/M06 A2977 RMK DEER LODGE
METAR K3U3 191730Z AUTO 19012G17KT 10SM 18/M09 A2979 RMK ANACONDA
METAR K6S5 191730Z AUTO 16014G19KT 10SM 21/M06 A2970 RMK HAMILTON
METAR KS59 191730Z AUTO 17007KT 10SM 17/M01 A2960 RMK LIBBY
METAR K88M 191730Z AUTO 10SM 16/01 RMK EUREKA



USA.gov is the U.S. government's official web portal to all federal, state and local government web resources and services.